Kugler, Minnesota
Current Conditions -  °F | °C
As of 7:54 AM on Saturday 25 Oct 2014 (Local Time) from KCQM Reporting Station
Clear Clear  
Wind Chill: 36°   Ceiling: Unl
Heat Index: 43°   Visibility: 10mi
Dew Point: 32°   Wind: 14mph
Humidity: 66%   Direction: 280°W
Pressure: 29.89"   Gusts: NA
Location:  47.7992°N, 92.3042°W
Report Text: KCQM 251254Z AUTO 28012KT 10SM CLR 06/00 A2989 RMK AO2
Loading
Personal Weather Stations






























Interactive Weather Map
Tropical Storm Tracking
New forecast layout! Learn more

10-Day Weather Forecast

Advertisements
Track Severe Weather on mobile